Time;durP1;ratioP1;P1;durP2;ratioP2;P2;SDS_P1;SDS_P2;PMS_P1;PMS_P2;Temp;Humidity;BMP_temperature;BMP_pressure;BME280_temperature;BME280_humidity;BME280_pressure;Samples;Min_cycle;Max_cycle;Signal;HPM_P1;HPM_P2
2022/10/15 00:02:22;;;;;;;0.10;0.10;;;;;;;12.28;100.00;95807.78;5023316;28;20056;-75
2022/10/15 00:05:08;;;;;;;0.10;0.10;;;;;;;12.29;100.00;95806.69;5024532;28;20076;-74
2022/10/15 00:07:54;;;;;;;0.10;0.10;;;;;;;12.34;100.00;95811.25;5023300;28;20144;-74
2022/10/15 00:10:40;;;;;;;0.10;0.10;;;;;;;12.33;100.00;95809.66;5024201;28;20774;-74
2022/10/15 00:13:25;;;;;;;0.20;0.20;;;;;;;12.30;100.00;95802.16;5022058;28;20052;-74
2022/10/15 00:16:14;;;;;;;0.10;0.10;;;;;;;12.32;100.00;95800.81;5023347;28;20405;-73
2022/10/15 00:19:00;;;;;;;0.10;0.10;;;;;;;12.34;100.00;95800.53;5024185;28;20144;-72
2022/10/15 00:21:46;;;;;;;0.10;0.10;;;;;;;12.28;100.00;95794.38;5021452;28;20044;-72
2022/10/15 00:24:32;;;;;;;0.13;0.13;;;;;;;12.22;100.00;95793.59;5024528;28;20045;-74
2022/10/15 00:27:18;;;;;;;0.10;0.10;;;;;;;12.15;100.00;95797.66;5021679;28;20041;-74
2022/10/15 00:30:05;;;;;;;0.10;0.10;;;;;;;12.22;100.00;95793.59;5023631;28;20041;-72
2022/10/15 00:32:51;;;;;;;0.10;0.10;;;;;;;12.18;100.00;95795.22;5011536;28;20040;-72
2022/10/15 00:35:37;;;;;;;0.10;0.10;;;;;;;12.27;100.00;95803.50;5008608;28;20079;-74
2022/10/15 00:38:22;;;;;;;0.10;0.10;;;;;;;12.27;100.00;95796.25;5010985;28;20045;-72
2022/10/15 00:41:17;;;;;;;0.10;0.10;;;;;;;12.31;100.00;95798.41;5023681;28;20040;-72
2022/10/15 00:44:27;;;;;;;0.10;0.10;;;;;;;12.33;100.00;95797.03;5012183;28;20151;-75
2022/10/15 00:47:27;;;;;;;0.10;0.10;;;;;;;12.35;100.00;95786.81;5022813;28;20042;-75
2022/10/15 00:50:22;;;;;;;0.10;0.10;;;;;;;12.37;100.00;95781.19;5024714;28;20052;-75
2022/10/15 00:53:08;;;;;;;0.10;0.10;;;;;;;12.34;100.00;95785.22;5024439;28;20041;-74
2022/10/15 00:55:54;;;;;;;0.10;0.10;;;;;;;12.38;100.00;95788.19;5025384;28;20037;-75
2022/10/15 00:58:41;;;;;;;0.10;0.10;;;;;;;12.39;100.00;95782.53;5016618;28;20425;-76
2022/10/15 01:01:27;;;;;;;0.20;0.20;;;;;;;12.45;100.00;95794.00;5010338;28;20045;-74
2022/10/15 01:04:16;;;;;;;0.10;0.10;;;;;;;12.43;100.00;95780.09;5025285;28;20044;-75
2022/10/15 01:07:02;;;;;;;0.10;0.10;;;;;;;12.38;100.00;95782.81;5023220;28;20044;-74
2022/10/15 01:09:49;;;;;;;0.10;0.10;;;;;;;12.37;100.00;95775.81;5006177;28;20513;-76
2022/10/15 01:13:07;;;;;;;0.13;0.13;;;;;;;12.37;100.00;95771.25;5022475;28;20120;-76
2022/10/15 01:15:58;;;;;;;0.15;0.15;;;;;;;12.38;100.00;95780.94;5022849;28;20049;-73
2022/10/15 01:18:51;;;;;;;0.10;0.10;;;;;;;12.32;100.00;95762.44;5014443;28;20037;-76
2022/10/15 01:21:52;;;;;;;0.10;0.10;;;;;;;12.40;100.00;95765.34;5024164;28;20116;-75
2022/10/15 01:24:43;;;;;;;0.10;0.10;;;;;;;12.39;100.00;95771.00;5023045;28;20033;-76
2022/10/15 01:27:33;;;;;;;0.10;0.10;;;;;;;12.35;100.00;95751.94;5018608;28;20482;-75
2022/10/15 01:30:26;;;;;;;0.10;0.10;;;;;;;12.34;100.00;95749.56;5009329;28;20091;-76
2022/10/15 01:33:24;;;;;;;0.10;0.10;;;;;;;12.31;100.00;95756.28;5018959;28;20049;-76
2022/10/15 01:36:40;;;;;;;0.10;0.10;;;;;;;12.33;100.00;95764.84;5021050;28;20125;-76
2022/10/15 01:39:33;;;;;;;0.10;0.10;;;;;;;12.30;100.00;95769.97;5023942;28;20045;-77
2022/10/15 01:42:29;;;;;;;0.10;0.10;;;;;;;12.31;100.00;95772.38;5012058;28;20413;-76
2022/10/15 01:45:31;;;;;;;0.10;0.10;;;;;;;12.30;100.00;95768.09;5021483;28;20052;-76
2022/10/15 01:48:36;;;;;;;0.10;0.10;;;;;;;12.25;100.00;95770.78;5008845;28;20753;-75
2022/10/15 01:51:24;;;;;;;0.10;0.10;;;;;;;12.25;100.00;95776.16;5024737;28;20079;-74
2022/10/15 01:54:19;;;;;;;0.10;0.10;;;;;;;12.25;100.00;95774.28;5027635;28;20059;-76
2022/10/15 01:57:06;;;;;;;0.10;0.10;;;;;;;12.23;100.00;95767.59;5026776;28;20429;-76
2022/10/15 01:59:53;;;;;;;0.10;0.10;;;;;;;12.25;100.00;95768.09;5026400;28;20632;-74
2022/10/15 02:02:42;;;;;;;0.10;0.10;;;;;;;12.26;100.00;95761.66;5027281;28;20441;-76
2022/10/15 02:05:35;;;;;;;0.10;0.10;;;;;;;12.24;100.00;95761.13;5027297;28;20037;-75
2022/10/15 02:08:31;;;;;;;0.10;0.10;;;;;;;12.22;100.00;95763.31;5026706;28;20126;-76
2022/10/15 02:11:18;;;;;;;0.10;0.10;;;;;;;12.21;100.00;95767.84;5026430;28;20041;-76
2022/10/15 02:14:12;;;;;;;0.10;0.10;;;;;;;12.21;100.00;95767.03;5024745;28;20037;-75
2022/10/15 02:17:09;;;;;;;0.10;0.10;;;;;;;12.20;100.00;95765.44;5027693;28;20633;-74
2022/10/15 02:20:04;;;;;;;0.20;0.20;;;;;;;12.15;100.00;95757.44;5023441;28;20038;-76
2022/10/15 02:23:06;;;;;;;0.10;0.10;;;;;;;12.20;100.00;95754.72;5023356;28;20481;-76
2022/10/15 02:25:52;;;;;;;;;;;;;;;12.23;100.00;95748.81;5026665;28;20048;-75
2022/10/15 02:28:42;;;;;;;0.10;0.10;;;;;;;12.25;100.00;95752.81;5025742;28;20152;-76
2022/10/15 02:31:30;;;;;;;0.10;0.10;;;;;;;12.23;100.00;95746.94;5013492;28;20551;-74
2022/10/15 02:34:21;;;;;;;0.10;0.10;;;;;;;12.23;100.00;95748.81;5023171;28;20137;-76
2022/10/15 02:37:08;;;;;;;0.10;0.10;;;;;;;12.24;100.00;95753.09;5010963;28;20041;-75
2022/10/15 02:39:56;;;;;;;0.13;0.13;;;;;;;12.22;100.00;95747.22;5025700;28;20166;-75
2022/10/15 02:42:43;;;;;;;0.20;0.20;;;;;;;12.20;100.00;95746.66;5022328;28;20437;-72
2022/10/15 02:45:30;;;;;;;0.13;0.13;;;;;;;12.21;100.00;95745.56;5015139;28;20042;-74
2022/10/15 02:48:16;;;;;;;0.10;0.10;;;;;;;12.21;100.00;95748.25;5024817;28;20124;-74
2022/10/15 02:51:02;;;;;;;0.13;0.13;;;;;;;12.22;100.00;95749.91;5010957;28;20052;-73
2022/10/15 02:53:51;;;;;;;0.10;0.10;;;;;;;12.20;100.00;95749.34;5022588;28;20075;-73
2022/10/15 02:56:38;;;;;;;0.10;0.10;;;;;;;12.18;100.00;95752.31;5009501;28;20038;-74
2022/10/15 02:59:24;;;;;;;0.10;0.10;;;;;;;12.14;100.00;95755.81;5008046;28;20073;-73
2022/10/15 03:02:10;;;;;;;0.10;0.10;;;;;;;12.17;100.00;95755.28;5009526;28;20073;-74
2022/10/15 03:04:56;;;;;;;0.10;0.10;;;;;;;12.16;100.00;95753.66;5026034;28;20150;-72
2022/10/15 03:07:43;;;;;;;0.20;0.20;;;;;;;12.13;100.00;95752.31;5010886;28;20041;-75
2022/10/15 03:10:28;;;;;;;0.17;0.17;;;;;;;12.14;100.00;95763.84;5011265;28;20045;-75
2022/10/15 03:13:15;;;;;;;0.10;0.10;;;;;;;12.13;100.00;95755.00;5024812;28;20045;-74
2022/10/15 03:16:10;;;;;;;0.10;0.10;;;;;;;12.12;100.00;95761.44;5024362;28;20239;-72
2022/10/15 03:18:58;;;;;;;0.10;0.10;;;;;;;12.12;100.00;95766.81;5009577;28;20540;-75
2022/10/15 03:21:44;;;;;;;0.10;0.10;;;;;;;12.15;100.00;95768.97;5024813;28;20747;-76
2022/10/15 03:24:34;;;;;;;0.10;0.10;;;;;;;12.19;100.00;95764.63;5008345;28;20570;-75
2022/10/15 03:27:20;;;;;;;0.10;0.10;;;;;;;12.22;100.00;95764.09;5022193;28;20513;-74
2022/10/15 03:30:07;;;;;;;0.10;0.10;;;;;;;12.19;100.00;95758.47;5009789;28;20041;-74
2022/10/15 03:32:53;;;;;;;0.10;0.10;;;;;;;12.19;100.00;95763.84;5011873;28;20041;-73
2022/10/15 03:35:39;;;;;;;0.10;0.10;;;;;;;12.20;100.00;95768.13;5022902;28;20651;-76
2022/10/15 03:38:25;;;;;;;0.10;0.10;;;;;;;12.19;100.00;95772.69;5018962;28;20045;-76
2022/10/15 03:41:12;;;;;;;0.20;0.20;;;;;;;12.16;100.00;95775.94;5010204;28;20559;-75
2022/10/15 03:44:02;;;;;;;0.10;0.10;;;;;;;12.12;100.00;95774.06;5002218;28;20040;-72
2022/10/15 03:46:50;;;;;;;0.10;0.10;;;;;;;12.10;100.00;95768.97;5011613;28;20641;-74
2022/10/15 03:49:40;;;;;;;0.20;0.20;;;;;;;12.11;100.00;95765.22;5013258;28;20174;-74
2022/10/15 03:52:27;;;;;;;0.20;0.20;;;;;;;12.12;100.00;95763.31;5021792;28;20052;-76
2022/10/15 03:55:14;;;;;;;0.10;0.10;;;;;;;12.08;100.00;95759.59;5012254;28;20405;-74
2022/10/15 03:58:02;;;;;;;0.17;0.17;;;;;;;12.03;100.00;95755.06;5018467;28;20319;-75
2022/10/15 04:00:48;;;;;;;0.10;0.10;;;;;;;12.03;100.00;95763.09;5010296;28;20628;-73
2022/10/15 04:03:34;;;;;;;0.10;0.10;;;;;;;12.06;100.00;95769.78;5009228;28;20045;-74
2022/10/15 04:06:20;;;;;;;0.10;0.10;;;;;;;12.06;100.00;95767.94;5013001;28;20037;-73
2022/10/15 04:09:10;;;;;;;0.10;0.10;;;;;;;12.11;100.00;95777.81;5021433;28;20339;-74
2022/10/15 04:11:55;;;;;;;0.20;0.20;;;;;;;12.11;100.00;95783.19;5013978;28;20272;-74
2022/10/15 04:14:41;;;;;;;0.20;0.20;;;;;;;12.08;100.00;95783.75;5008635;28;20517;-76
2022/10/15 04:17:27;;;;;;;0.10;0.10;;;;;;;12.11;100.00;95788.53;5022611;28;20052;-75
2022/10/15 04:20:13;;;;;;;0.10;0.10;;;;;;;12.08;100.00;95787.22;5022663;28;20851;-73
2022/10/15 04:23:02;;;;;;;0.10;0.10;;;;;;;12.10;100.00;95790.41;5013213;28;20275;-76
2022/10/15 04:25:50;;;;;;;0.10;0.10;;;;;;;12.12;100.00;95793.63;5026429;28;20427;-74
2022/10/15 04:28:36;;;;;;;0.10;0.10;;;;;;;12.06;100.00;95786.69;5023466;28;20159;-73
2022/10/15 04:31:24;;;;;;;0.10;0.10;;;;;;;12.10;100.00;95789.63;5012995;28;20053;-75
2022/10/15 04:34:11;;;;;;;0.10;0.10;;;;;;;12.08;100.00;95794.47;5023268;28;20329;-74
2022/10/15 04:36:57;;;;;;;0.10;0.10;;;;;;;12.11;100.00;95791.22;5009359;28;20056;-74
2022/10/15 04:39:43;;;;;;;0.22;0.10;;;;;;;12.08;100.00;95784.53;5022737;28;20491;-74
2022/10/15 04:42:32;;;;;;;0.20;0.20;;;;;;;12.02;100.00;95787.50;5024398;28;20047;-75
2022/10/15 04:45:18;;;;;;;0.10;0.10;;;;;;;12.04;100.00;95771.94;5025333;28;20142;-75
2022/10/15 04:48:05;;;;;;;0.20;0.20;;;;;;;12.05;100.00;95768.19;5013389;28;20037;-74
2022/10/15 04:50:51;;;;;;;0.10;0.10;;;;;;;12.00;100.00;95771.69;5009253;28;20477;-74
2022/10/15 04:53:39;;;;;;;0.10;0.10;;;;;;;11.99;100.00;95780.81;5024691;28;21182;-75
2022/10/15 04:56:25;;;;;;;0.10;0.10;;;;;;;11.94;100.00;95778.94;5009858;28;20060;-75
2022/10/15 04:59:11;;;;;;;0.10;0.10;;;;;;;11.94;100.00;95773.59;5017313;28;20334;-75
2022/10/15 05:02:17;;;;;;;0.10;0.10;;;;;;;11.91;100.00;95758.06;5019956;28;20139;-75
2022/10/15 05:05:08;;;;;;;0.10;0.10;;;;;;;11.85;100.00;95748.41;5024135;28;20124;-75
2022/10/15 05:08:01;;;;;;;0.10;0.10;;;;;;;11.79;100.00;95749.47;5023836;28;20041;-75
2022/10/15 05:10:48;;;;;;;0.10;0.10;;;;;;;11.68;100.00;95764.78;5010017;28;20052;-73
2022/10/15 05:13:37;;;;;;;0.10;0.10;;;;;;;11.54;100.00;95781.69;5012027;28;20432;-73
2022/10/15 05:16:28;;;;;;;0.10;0.10;;;;;;;11.57;100.00;95778.47;5010768;28;20049;-72
2022/10/15 05:19:15;;;;;;;0.10;0.10;;;;;;;11.54;100.00;95779.03;5013909;28;20037;-75
2022/10/15 05:22:01;;;;;;;0.10;0.10;;;;;;;11.56;100.00;95785.72;5012791;28;20061;-76
2022/10/15 05:24:50;;;;;;;0.10;0.10;;;;;;;11.45;100.00;95789.50;5010710;28;20115;-73
2022/10/15 05:27:54;;;;;;;0.10;0.10;;;;;;;11.55;100.00;95812.78;5025526;28;20046;-74
2022/10/15 05:30:40;;;;;;;0.10;0.10;;;;;;;11.56;100.00;95803.66;5026636;28;20072;-75
2022/10/15 05:33:26;;;;;;;0.15;0.15;;;;;;;11.44;100.00;95806.63;5024686;28;20111;-76
2022/10/15 05:36:16;;;;;;;0.10;0.10;;;;;;;11.32;100.00;95811.44;5016869;28;20041;-74
2022/10/15 05:39:04;;;;;;;0.10;0.10;;;;;;;11.44;100.00;95810.13;5017611;28;20508;-73
2022/10/15 05:41:55;;;;;;;0.10;0.10;;;;;;;11.40;100.00;95810.91;5030108;28;20033;-73
2022/10/15 05:44:50;;;;;;;0.10;0.10;;;;;;;11.46;100.00;95825.13;5015693;28;20111;-73
2022/10/15 05:47:36;;;;;;;0.10;0.10;;;;;;;11.28;100.00;95824.56;5016545;28;20067;-74
2022/10/15 05:50:35;;;;;;;0.10;0.10;;;;;;;11.42;100.00;95831.00;5027797;28;20053;-74
2022/10/15 05:53:23;;;;;;;0.10;0.10;;;;;;;11.44;100.00;95825.38;5015566;28;20068;-74
2022/10/15 05:56:15;;;;;;;0.10;0.10;;;;;;;11.54;100.00;95824.56;5013823;28;20055;-76
2022/10/15 05:59:02;;;;;;;0.10;0.10;;;;;;;11.49;100.00;95837.97;5025672;28;20041;-76
2022/10/15 06:01:48;;;;;;;0.20;0.20;;;;;;;11.59;100.00;95845.97;5026371;28;20034;-75
2022/10/15 06:04:37;;;;;;;0.10;0.10;;;;;;;11.63;100.00;95841.72;5025173;28;20040;-75
2022/10/15 06:07:22;;;;;;;0.10;0.10;;;;;;;11.63;100.00;95845.19;5025758;28;20041;-75
2022/10/15 06:10:11;;;;;;;0.10;0.10;;;;;;;11.70;100.00;95839.56;5023817;28;20041;-75
2022/10/15 06:12:57;;;;;;;0.10;0.10;;;;;;;11.74;100.00;95843.28;5024883;28;20397;-74
2022/10/15 06:15:44;;;;;;;0.10;0.10;;;;;;;11.59;100.00;95844.09;5026498;28;20554;-76
2022/10/15 06:18:31;;;;;;;0.15;0.15;;;;;;;11.58;100.00;95836.34;5024725;28;20059;-75
2022/10/15 06:21:17;;;;;;;0.10;0.10;;;;;;;11.57;100.00;95837.41;5025806;28;20041;-76
2022/10/15 06:24:03;;;;;;;0.10;0.10;;;;;;;11.55;100.00;95844.94;5028316;28;20091;-75
2022/10/15 06:26:48;;;;;;;0.10;0.10;;;;;;;11.62;100.00;95840.09;5026031;28;20048;-75
2022/10/15 06:29:34;;;;;;;0.10;0.10;;;;;;;11.65;100.00;95828.84;5025809;28;20398;-75
2022/10/15 06:32:20;;;;;;;0.20;0.20;;;;;;;11.70;100.00;95826.16;5017378;28;20494;-76
2022/10/15 06:35:06;;;;;;;0.20;0.20;;;;;;;11.68;100.00;95828.31;5025410;28;20269;-77
2022/10/15 06:37:53;;;;;;;0.20;0.20;;;;;;;11.68;100.00;95839.03;5024619;28;20049;-74
2022/10/15 06:40:39;;;;;;;0.10;0.10;;;;;;;11.63;100.00;95841.72;5015261;28;20240;-76
2022/10/15 06:43:25;;;;;;;0.10;0.10;;;;;;;11.61;100.00;95851.91;5024724;28;20037;-75
2022/10/15 06:46:11;;;;;;;0.20;0.20;;;;;;;11.52;100.00;95850.84;5026685;28;20349;-74
2022/10/15 06:48:57;;;;;;;0.10;0.10;;;;;;;11.54;100.00;95846.81;5025746;28;20052;-76
2022/10/15 06:51:43;;;;;;;0.20;0.20;;;;;;;11.51;100.00;95859.91;5023392;28;20048;-76
2022/10/15 06:54:28;;;;;;;0.10;0.10;;;;;;;11.40;100.00;95859.94;5018245;28;20091;-76
2022/10/15 06:57:24;;;;;;;0.10;0.10;;;;;;;11.39;100.00;95866.38;5024254;28;20051;-74
2022/10/15 07:00:11;;;;;;;0.10;0.10;;;;;;;11.42;100.00;95875.72;5022960;28;20090;-74
2022/10/15 07:03:02;;;;;;;0.10;0.10;;;;;;;11.47;100.00;95870.38;5023774;28;20072;-74
2022/10/15 07:05:48;;;;;;;0.10;0.10;;;;;;;11.44;100.00;95871.72;5023117;28;20085;-76
2022/10/15 07:08:35;;;;;;;0.20;0.20;;;;;;;11.45;100.00;95883.25;5026913;28;20050;-74
2022/10/15 07:11:20;;;;;;;0.15;0.15;;;;;;;11.46;100.00;95882.19;5026409;28;20060;-74
2022/10/15 07:14:06;;;;;;;0.20;0.20;;;;;;;11.62;100.00;95878.41;5027163;28;20045;-77
2022/10/15 07:16:52;;;;;;;0.10;0.10;;;;;;;11.84;100.00;95880.06;5028124;28;20095;-77
2022/10/15 07:19:42;;;;;;;0.10;0.10;;;;;;;12.02;100.00;95878.66;5010641;28;20045;-76
2022/10/15 07:22:28;;;;;;;0.15;0.15;;;;;;;12.13;100.00;95878.38;5022665;28;20064;-76
2022/10/15 07:25:14;;;;;;;0.20;0.20;;;;;;;12.24;100.00;95884.53;5027057;28;20128;-76
2022/10/15 07:28:01;;;;;;;0.10;0.10;;;;;;;12.45;100.00;95885.25;5021410;28;20718;-74
2022/10/15 07:30:47;;;;;;;0.10;0.10;;;;;;;12.68;100.00;95878.44;5026510;28;20048;-76
2022/10/15 07:33:33;;;;;;;0.20;0.20;;;;;;;12.72;100.00;95885.69;5027388;28;20041;-76
2022/10/15 07:36:19;;;;;;;0.10;0.10;;;;;;;12.40;100.00;95883.41;5026802;28;20365;-76
2022/10/15 07:39:05;;;;;;;0.10;0.10;;;;;;;12.34;100.00;95895.22;5025430;28;20211;-75
2022/10/15 07:41:51;;;;;;;0.10;0.10;;;;;;;12.32;100.00;95894.69;5026306;28;20628;-74
2022/10/15 07:44:37;;;;;;;0.10;0.10;;;;;;;12.19;100.00;95906.78;5028142;28;20140;-75
2022/10/15 07:47:28;;;;;;;;;;;;;;;12.08;100.00;95905.22;5024981;28;20520;-77
2022/10/15 07:50:14;;;;;;;0.20;0.20;;;;;;;12.19;100.00;95904.09;5028113;28;19923;-75
2022/10/15 07:53:00;;;;;;;0.10;0.10;;;;;;;12.26;100.00;95904.63;5026124;28;20098;-75
2022/10/15 07:55:46;;;;;;;0.13;0.10;;;;;;;11.98;100.00;95907.88;5010818;28;20110;-76
2022/10/15 07:58:37;;;;;;;0.10;0.10;;;;;;;12.11;100.00;95895.81;5026991;28;20424;-76
2022/10/15 08:01:22;;;;;;;0.10;0.10;;;;;;;12.22;100.00;95902.78;5023673;28;20049;-76
2022/10/15 08:04:08;;;;;;;0.10;0.10;;;;;;;12.25;100.00;95896.84;5025787;28;20432;-75
2022/10/15 08:06:56;;;;;;;0.10;0.10;;;;;;;12.24;100.00;95884.53;5026710;28;20554;-76
2022/10/15 08:09:42;;;;;;;0.10;0.10;;;;;;;12.44;100.00;95897.06;5025253;28;20137;-76
2022/10/15 08:12:28;;;;;;;0.10;0.10;;;;;;;12.67;100.00;95898.31;5025618;28;20338;-75
2022/10/15 08:15:14;;;;;;;0.00;0.00;;;;;;;12.73;100.00;95902.59;4989289;28;20238;-74
2022/10/15 08:18:00;;;;;;;0.10;0.10;;;;;;;12.59;100.00;95899.69;5025485;28;20726;-74
2022/10/15 08:20:46;;;;;;;0.15;0.10;;;;;;;12.55;100.00;95901.34;5026961;28;20098;-75
2022/10/15 08:23:32;;;;;;;0.10;0.10;;;;;;;12.69;100.00;95899.66;5025226;28;20057;-75
2022/10/15 08:26:18;;;;;;;0.10;0.10;;;;;;;12.48;100.00;95898.94;5024826;28;20752;-76
2022/10/15 08:29:04;;;;;;;0.10;0.10;;;;;;;12.54;100.00;95905.91;5026166;28;20568;-75
2022/10/15 08:31:52;;;;;;;0.10;0.10;;;;;;;12.61;100.00;95900.25;5024040;28;20037;-74
2022/10/15 08:34:42;;;;;;;0.10;0.10;;;;;;;12.66;100.00;95885.97;5025389;28;20037;-79
2022/10/15 08:37:28;;;;;;;0.10;0.10;;;;;;;12.59;100.00;95902.38;5025003;28;20492;-76
2022/10/15 08:40:15;;;;;;;0.10;0.10;;;;;;;12.67;100.00;95895.63;5027542;28;20559;-75
2022/10/15 08:43:02;;;;;;;0.13;0.13;;;;;;;12.68;100.00;95899.91;5025511;28;20116;-74
2022/10/15 08:45:52;;;;;;;0.10;0.10;;;;;;;12.94;100.00;95900.63;5024556;28;20510;-76
2022/10/15 08:48:52;;;;;;;0.10;0.10;;;;;;;13.01;100.00;95904.63;5025699;28;20045;-74
2022/10/15 08:51:52;;;;;;;0.10;0.10;;;;;;;13.04;100.00;95903.25;5027349;28;20052;-74
2022/10/15 08:54:39;;;;;;;0.10;0.10;;;;;;;13.05;100.00;95900.28;5027510;28;20251;-74
2022/10/15 08:57:42;;;;;;;0.20;0.20;;;;;;;12.78;100.00;95898.00;5025291;28;20461;-74
2022/10/15 09:00:37;;;;;;;0.20;0.20;;;;;;;12.80;100.00;95909.28;5029518;28;20183;-75
2022/10/15 09:03:32;;;;;;;0.10;0.10;;;;;;;12.88;100.00;95899.84;5030125;28;20049;-75
2022/10/15 09:06:25;;;;;;;0.10;0.10;;;;;;;12.93;100.00;95896.34;5030309;28;20044;-75
2022/10/15 09:09:41;;;;;;;0.20;0.20;;;;;;;12.94;100.00;95901.44;5016885;28;20045;-74
2022/10/15 09:13:04;;;;;;;0.20;0.20;;;;;;;12.78;100.00;95900.69;5018507;28;20106;-76
2022/10/15 09:15:56;;;;;;;0.15;0.13;;;;;;;12.79;100.00;95909.56;4999018;28;20049;-71
2022/10/15 09:18:48;;;;;;;0.17;0.17;;;;;;;12.81;100.00;95907.38;5028603;28;20041;-74
2022/10/15 09:21:34;;;;;;;0.20;0.20;;;;;;;12.95;100.00;95904.91;5032244;28;20350;-70
2022/10/15 09:24:23;;;;;;;0.20;0.20;;;;;;;12.99;100.00;95908.63;5029344;28;20123;-73
2022/10/15 09:27:36;;;;;;;0.28;0.28;;;;;;;13.08;100.00;95905.13;5028056;28;20033;-71
2022/10/15 09:30:34;;;;;;;0.10;0.10;;;;;;;13.10;100.00;95911.00;5029992;28;20041;-71
2022/10/15 09:33:32;;;;;;;0.20;0.20;;;;;;;13.27;100.00;95905.28;5029811;28;20143;-73
2022/10/15 09:36:41;;;;;;;0.10;0.10;;;;;;;13.57;100.00;95906.16;5029369;28;20040;-74
2022/10/15 09:39:49;;;;;;;0.20;0.17;;;;;;;13.78;100.00;95904.94;5027436;28;20073;-72
2022/10/15 09:42:38;;;;;;;0.13;0.13;;;;;;;13.69;100.00;95900.41;5028123;28;20140;-74
2022/10/15 09:45:24;;;;;;;0.10;0.10;;;;;;;13.59;100.00;95912.06;5035717;28;20049;-73
2022/10/15 09:48:18;;;;;;;0.20;0.20;;;;;;;13.41;100.00;95900.09;5035566;28;20437;-76
2022/10/15 09:51:29;;;;;;;0.08;0.08;;;;;;;13.37;100.00;95912.47;5036407;28;20486;-74
2022/10/15 09:54:28;;;;;;;0.10;0.10;;;;;;;13.40;100.00;95911.13;5038626;28;20045;-75
2022/10/15 09:57:18;;;;;;;0.10;0.10;;;;;;;13.83;100.00;95893.31;5037721;28;20555;-76
2022/10/15 10:00:19;;;;;;;0.10;0.10;;;;;;;14.01;100.00;95900.69;5037782;28;20492;-73
2022/10/15 10:03:13;;;;;;;0.10;0.10;;;;;;;13.94;100.00;95902.91;5035371;28;20045;-74
2022/10/15 10:06:09;;;;;;;0.10;0.10;;;;;;;13.92;100.00;95905.06;5036939;28;20029;-76
2022/10/15 10:09:05;;;;;;;0.20;0.20;;;;;;;13.71;100.00;95890.19;5033897;28;20041;-74
2022/10/15 10:12:02;;;;;;;0.10;0.10;;;;;;;13.78;100.00;95898.75;5037267;28;20068;-76
2022/10/15 10:15:01;;;;;;;0.10;0.10;;;;;;;13.58;100.00;95903.19;5007356;28;20044;-76
2022/10/15 10:17:54;;;;;;;0.20;0.20;;;;;;;13.42;100.00;95909.75;5030863;28;20041;-76
2022/10/15 10:21:01;;;;;;;0.15;0.15;;;;;;;13.54;100.00;95904.84;5038547;28;20037;-74
2022/10/15 10:23:49;;;;;;;0.10;0.10;;;;;;;13.54;100.00;95904.03;5032613;28;20388;-76
2022/10/15 10:26:35;;;;;;;0.10;0.10;;;;;;;13.53;100.00;95913.16;5018775;28;20045;-74
2022/10/15 10:29:22;;;;;;;0.17;0.17;;;;;;;13.56;100.00;95915.31;5024188;28;20127;-76
2022/10/15 10:32:20;;;;;;;0.10;0.10;;;;;;;13.44;100.00;95912.16;5019635;28;20073;-75
2022/10/15 10:35:26;;;;;;;0.10;0.10;;;;;;;13.57;100.00;95906.97;5037993;28;20491;-74
2022/10/15 10:38:24;;;;;;;0.20;0.20;;;;;;;13.62;100.00;95909.63;5035095;28;20468;-76
2022/10/15 10:41:11;;;;;;;0.10;0.10;;;;;;;13.47;100.00;95906.25;4687926;28;10000145;-73
2022/10/15 10:43:56;;;;;;;0.20;0.20;;;;;;;13.40;100.00;95908.44;5021653;28;20041;-75
2022/10/15 10:47:00;;;;;;;0.10;0.10;;;;;;;13.52;100.00;95900.81;5031856;28;20092;-73
2022/10/15 10:49:52;;;;;;;0.10;0.10;;;;;;;13.45;100.00;95898.44;5034080;28;20131;-74
2022/10/15 10:52:39;;;;;;;0.20;0.20;;;;;;;13.40;100.00;95901.19;5033491;28;20068;-74
2022/10/15 10:55:37;;;;;;;0.20;0.20;;;;;;;13.45;100.00;95906.50;5035004;28;20401;-76
2022/10/15 10:58:26;;;;;;;0.10;0.10;;;;;;;13.23;100.00;95901.56;5036423;28;20043;-76
2022/10/15 11:01:12;;;;;;;0.13;0.13;;;;;;;13.26;100.00;95889.44;5033062;28;20489;-74
2022/10/15 11:03:58;;;;;;;0.10;0.10;;;;;;;13.53;100.00;95891.66;5032662;28;20555;-75
2022/10/15 11:07:13;;;;;;;0.22;0.20;;;;;;;13.72;100.00;95886.44;5037395;28;20048;-74
2022/10/15 11:10:09;;;;;;;0.10;0.10;;;;;;;13.83;100.00;95885.25;5034610;28;20311;-76
2022/10/15 11:13:05;;;;;;;0.10;0.10;;;;;;;13.73;100.00;95882.66;5033850;28;20079;-74
2022/10/15 11:16:00;;;;;;;0.15;0.15;;;;;;;13.94;100.00;95868.75;5026775;28;20098;-75
2022/10/15 11:19:19;;;;;;;0.10;0.10;;;;;;;14.15;100.00;95879.28;5037268;28;20048;-73
2022/10/15 11:22:26;;;;;;;0.10;0.10;;;;;;;14.41;100.00;95861.78;5035071;28;20037;-76
2022/10/15 11:25:45;;;;;;;0.15;0.15;;;;;;;14.25;100.00;95870.31;5031063;28;20044;-73
2022/10/15 11:28:54;;;;;;;0.13;0.13;;;;;;;14.27;100.00;95874.31;5036138;28;20052;-75
2022/10/15 11:31:56;;;;;;;0.13;0.13;;;;;;;14.29;100.00;95874.03;5020888;28;20132;-74
2022/10/15 11:35:09;;;;;;;0.20;0.20;;;;;;;14.19;100.00;95872.25;5018905;28;20033;-76
2022/10/15 11:38:21;;;;;;;0.20;0.20;;;;;;;14.16;100.00;95878.19;5029720;28;20036;-76
2022/10/15 11:41:36;;;;;;;0.10;0.10;;;;;;;14.02;100.00;95870.00;5032116;28;20037;-77
2022/10/15 11:44:37;;;;;;;0.20;0.20;;;;;;;13.90;100.00;95889.22;5031838;28;20135;-76
2022/10/15 11:47:50;;;;;;;0.10;0.10;;;;;;;14.12;100.00;95885.25;5034808;28;20388;-73
2022/10/15 11:50:56;;;;;;;0.10;0.10;;;;;;;14.07;100.00;95877.22;5033162;28;20053;-76
2022/10/15 11:54:01;;;;;;;0.10;0.10;;;;;;;14.22;100.00;95875.16;5032006;28;20519;-76
2022/10/15 11:56:50;;;;;;;0.20;0.20;;;;;;;14.29;100.00;95864.06;5033953;28;20048;-76
2022/10/15 11:59:47;;;;;;;0.20;0.20;;;;;;;14.14;100.00;95873.09;5031250;28;20048;-75
2022/10/15 12:02:37;;;;;;;0.05;0.05;;;;;;;13.98;100.00;95873.53;5033039;28;20107;-75
2022/10/15 12:05:33;;;;;;;0.10;0.10;;;;;;;14.08;100.00;95868.84;5032248;28;20490;-73
2022/10/15 12:08:22;;;;;;;0.10;0.10;;;;;;;14.15;100.00;95855.88;5034217;28;20160;-76
2022/10/15 12:11:14;;;;;;;0.20;0.20;;;;;;;14.19;100.00;95856.91;5030273;28;20041;-75
2022/10/15 12:14:12;;;;;;;0.10;0.10;;;;;;;14.03;100.00;95847.41;5029083;28;20318;-76
2022/10/15 12:17:06;;;;;;;0.10;0.10;;;;;;;13.97;100.00;95851.22;5033031;28;20041;-76
2022/10/15 12:20:05;;;;;;;0.10;0.10;;;;;;;14.17;100.00;95851.03;5030644;28;20253;-74
2022/10/15 12:22:51;;;;;;;0.10;0.10;;;;;;;14.09;100.00;95848.16;5026415;28;20119;-73
2022/10/15 12:25:36;;;;;;;0.10;0.10;;;;;;;14.17;100.00;95844.84;5017614;28;20072;-74
2022/10/15 12:28:30;;;;;;;0.20;0.20;;;;;;;14.31;100.00;95842.25;5014517;28;20065;-75
2022/10/15 12:31:19;;;;;;;0.10;0.10;;;;;;;14.37;100.00;95847.28;5012877;28;20483;-76
2022/10/15 12:34:05;;;;;;;0.10;0.10;;;;;;;14.20;100.00;95838.88;5010598;28;20045;-74
2022/10/15 12:37:00;;;;;;;0.10;0.10;;;;;;;14.24;100.00;95848.00;5013651;28;20049;-75
2022/10/15 12:39:55;;;;;;;0.20;0.20;;;;;;;14.36;100.00;95834.94;5013286;28;20041;-76
2022/10/15 12:42:52;;;;;;;0.15;0.15;;;;;;;14.19;100.00;95832.69;5012700;28;20040;-76
2022/10/15 12:45:47;;;;;;;0.00;0.00;;;;;;;14.22;100.00;95837.50;5019154;28;20052;-76
2022/10/15 12:48:44;;;;;;;0.10;0.10;;;;;;;14.42;100.00;95836.47;5013786;28;20368;-74
2022/10/15 12:51:30;;;;;;;0.10;0.10;;;;;;;14.62;100.00;95831.94;5011361;28;20073;-75
2022/10/15 12:54:50;;;;;;;0.10;0.10;;;;;;;14.58;100.00;95839.81;5010512;28;20046;-74
2022/10/15 12:57:43;;;;;;;0.10;0.10;;;;;;;14.63;100.00;95837.06;4979749;28;20095;-77
2022/10/15 13:00:33;;;;;;;0.10;0.10;;;;;;;14.57;100.00;95846.28;5009109;28;20342;-75
2022/10/15 13:03:32;;;;;;;0.10;0.10;;;;;;;14.50;100.00;95832.38;5011113;28;20124;-76
2022/10/15 13:06:21;;;;;;;0.10;0.10;;;;;;;14.56;100.00;95841.19;5008793;28;20064;-76
2022/10/15 13:09:09;;;;;;;0.10;0.10;;;;;;;14.57;100.00;95843.59;5012329;28;20639;-74
2022/10/15 13:11:58;;;;;;;0.20;0.20;;;;;;;14.60;100.00;95840.31;5010332;28;20631;-74
2022/10/15 13:14:51;;;;;;;0.10;0.10;;;;;;;14.60;100.00;95837.63;4978513;28;20111;-74
2022/10/15 13:17:38;;;;;;;0.10;0.10;;;;;;;14.71;100.00;95830.25;5010808;28;20079;-76
2022/10/15 13:20:33;;;;;;;0.10;0.10;;;;;;;14.59;100.00;95824.47;4995538;28;20086;-75